createdAt,value
2023-04-12T00:00:12.092Z,1.30
2023-04-12T00:02:42.540Z,1.42
2023-04-12T00:05:14.228Z,1.30
2023-04-12T00:07:47.082Z,1.88
2023-04-12T00:10:15.689Z,1.88
2023-04-12T00:12:43.907Z,1.70
2023-04-12T00:15:12.799Z,1.90
2023-04-12T00:17:41.174Z,1.20
2023-04-12T00:20:12.952Z,1.42
2023-04-12T00:22:42.894Z,1.30
2023-04-12T00:25:11.719Z,1.40
2023-04-12T00:27:40.636Z,1.60
2023-04-12T00:30:09.912Z,1.42
2023-04-12T00:32:38.012Z,1.67
2023-04-12T00:35:07.158Z,1.70
2023-04-12T00:37:38.766Z,1.45
2023-04-12T00:40:11.031Z,1.70
2023-04-12T00:42:39.279Z,1.30
2023-04-12T00:45:08.563Z,1.67
2023-04-12T00:47:38.003Z,2.15
2023-04-12T00:50:07.234Z,1.52
2023-04-12T00:52:35.758Z,1.77
2023-04-12T00:55:05.408Z,1.80
2023-04-12T00:57:37.952Z,1.25
2023-04-12T01:00:09.072Z,1.30
2023-04-12T01:02:39.486Z,1.50
2023-04-12T01:05:14.981Z,1.40
2023-04-12T01:07:54.449Z,1.40
2023-04-12T01:10:34.955Z,1.95
2023-04-12T01:13:12.879Z,1.30
2023-04-12T01:15:47.499Z,1.88
2023-04-12T01:18:21.279Z,1.48
2023-04-12T01:20:57.899Z,1.30
2023-04-12T01:24:03.075Z,1.23
2023-04-12T01:26:40.926Z,1.70
2023-04-12T01:29:13.496Z,1.40
2023-04-12T01:31:43.367Z,1.77
2023-04-12T01:34:13.577Z,1.15
2023-04-12T01:36:44.109Z,1.63
2023-04-12T01:39:12.529Z,1.70
2023-04-12T01:41:45.377Z,1.30
2023-04-12T01:44:16.536Z,1.20
2023-04-12T01:46:46.962Z,1.40
2023-04-12T01:49:15.697Z,2.00
2023-04-12T01:51:52.531Z,1.17
2023-04-12T01:54:24.469Z,0.82
2023-04-12T01:56:59.068Z,1.40
2023-04-12T01:59:33.808Z,1.23
2023-04-12T02:02:03.647Z,1.55
2023-04-12T02:04:32.895Z,1.08
2023-04-12T02:07:01.345Z,1.00
2023-04-12T02:09:29.592Z,0.93
2023-04-12T02:11:58.034Z,1.30
2023-04-12T02:14:27.298Z,1.15
2023-04-12T02:16:58.346Z,1.17
2023-04-12T02:19:26.613Z,1.65
2023-04-12T02:21:54.854Z,1.83
2023-04-12T02:24:23.019Z,1.17
2023-04-12T02:26:51.218Z,1.10
2023-04-12T02:29:19.368Z,0.85
2023-04-12T02:31:48.423Z,1.10
2023-04-12T02:34:19.466Z,1.23
2023-04-12T02:36:48.544Z,1.23
2023-04-12T02:39:18.918Z,1.10
2023-04-12T02:41:47.235Z,1.73
2023-04-12T02:44:15.503Z,0.82
2023-04-12T02:46:43.576Z,1.45
2023-04-12T02:49:11.899Z,0.75
2023-04-12T02:51:41.898Z,1.30
2023-04-12T02:54:10.450Z,1.50
2023-04-12T02:56:38.687Z,1.85
2023-04-12T02:59:06.961Z,1.08
2023-04-12T03:01:35.235Z,1.10
2023-04-12T03:04:03.522Z,1.20
2023-04-12T03:06:32.162Z,1.10
2023-04-12T03:09:01.597Z,1.40
2023-04-12T03:11:29.868Z,1.13
2023-04-12T03:13:58.238Z,1.23
2023-04-12T03:16:30.107Z,1.23
2023-04-12T03:18:59.525Z,1.20
2023-04-12T03:21:28.431Z,1.10
2023-04-12T03:23:56.921Z,0.90
2023-04-12T03:26:27.165Z,1.15
2023-04-12T03:29:05.164Z,0.85
2023-04-12T03:31:33.369Z,1.00
2023-04-12T03:34:01.917Z,1.10
2023-04-12T03:36:31.596Z,1.13
2023-04-12T03:39:00.055Z,1.70
2023-04-12T03:41:30.258Z,1.20
2023-04-12T03:43:58.538Z,1.08
2023-04-12T03:46:26.904Z,1.17
2023-04-12T03:48:56.081Z,1.42
2023-04-12T03:51:27.044Z,1.10
2023-04-12T03:53:55.770Z,1.30
2023-04-12T03:56:24.848Z,1.58
2023-04-12T03:58:54.675Z,1.13
2023-04-12T04:01:23.760Z,1.48
2023-04-12T04:03:52.611Z,1.25
2023-04-12T04:06:21.924Z,1.15
2023-04-12T04:08:50.329Z,1.50
2023-04-12T04:11:18.775Z,1.25
2023-04-12T04:13:48.025Z,1.50
2023-04-12T04:16:18.247Z,1.10
2023-04-12T04:18:46.409Z,1.38
2023-04-12T04:21:15.569Z,1.23
2023-04-12T04:23:48.120Z,1.40
2023-04-12T04:26:17.261Z,1.73
2023-04-12T04:28:46.506Z,1.25
2023-04-12T04:31:17.780Z,1.35
2023-04-12T04:33:48.021Z,1.92
2023-04-12T04:36:16.731Z,1.88
2023-04-12T04:38:45.482Z,1.70
2023-04-12T04:41:13.960Z,1.40
2023-04-12T04:43:42.975Z,1.60
2023-04-12T04:46:12.086Z,1.63
2023-04-12T04:48:41.063Z,1.83
2023-04-12T04:51:10.668Z,1.90
2023-04-12T04:53:38.843Z,2.13
2023-04-12T04:56:08.076Z,1.92
2023-04-12T04:58:36.640Z,1.67
2023-04-12T05:01:05.571Z,1.98
2023-04-12T05:03:34.576Z,2.03
2023-04-12T05:06:03.515Z,1.75
2023-04-12T05:08:33.210Z,2.17
2023-04-12T05:11:01.415Z,1.88
2023-04-12T05:13:29.742Z,1.88
2023-04-12T05:15:57.933Z,1.67
2023-04-12T05:18:26.405Z,1.63
2023-04-12T05:20:55.008Z,1.48
2023-04-12T05:23:23.495Z,1.17
2023-04-12T05:25:53.508Z,1.42
2023-04-12T05:28:21.789Z,1.40
2023-04-12T05:30:50.160Z,1.50
2023-04-12T05:33:18.401Z,1.42
2023-04-12T05:35:46.752Z,1.27
2023-04-12T05:38:15.161Z,1.30
2023-04-12T05:40:44.372Z,2.42
2023-04-12T05:43:14.650Z,1.88
2023-04-12T05:45:43.207Z,1.10
2023-04-12T05:48:12.001Z,1.55
2023-04-12T05:50:40.527Z,1.58
2023-04-12T05:53:14.836Z,1.20
2023-04-12T05:55:43.817Z,2.35
2023-04-12T05:58:13.853Z,2.20
2023-04-12T06:00:47.057Z,1.48
2023-04-12T06:03:15.751Z,1.97
2023-04-12T06:05:45.122Z,1.60
2023-04-12T06:08:15.038Z,1.50
2023-04-12T06:10:43.737Z,2.42
2023-04-12T06:13:14.363Z,1.55
2023-04-12T06:15:46.269Z,1.67
2023-04-12T06:18:15.710Z,2.05
2023-04-12T06:20:44.091Z,1.73
2023-04-12T06:23:12.648Z,1.40
2023-04-12T06:25:40.861Z,1.50
2023-04-12T06:28:09.577Z,1.73
2023-04-12T06:30:39.420Z,2.15
2023-04-12T06:33:08.616Z,2.38
2023-04-12T06:35:37.097Z,1.92
2023-04-12T06:38:06.090Z,2.15
2023-04-12T06:40:34.580Z,1.90
2023-04-12T06:43:02.855Z,1.70
2023-04-12T06:45:31.401Z,1.70
2023-04-12T06:48:01.205Z,1.88
2023-04-12T06:50:31.258Z,1.90
2023-04-12T06:52:59.629Z,1.92
2023-04-12T06:55:29.436Z,2.15
2023-04-12T06:57:57.943Z,2.38
2023-04-12T07:00:26.654Z,1.95
2023-04-12T07:02:55.355Z,2.33
2023-04-12T07:05:25.777Z,2.08
2023-04-12T07:07:54.293Z,3.00
2023-04-12T07:10:22.519Z,2.22
2023-04-12T07:12:52.136Z,2.47
2023-04-12T07:15:20.621Z,2.17
2023-04-12T07:17:49.108Z,2.83
2023-04-12T07:20:17.606Z,2.20
2023-04-12T07:22:47.458Z,2.25
2023-04-12T07:25:15.993Z,1.98
2023-04-12T07:27:44.405Z,2.35
2023-04-12T07:30:13.918Z,2.08
2023-04-12T07:32:44.593Z,2.33
2023-04-12T07:35:13.060Z,2.50
2023-04-12T07:37:41.955Z,2.72
2023-04-12T07:40:12.540Z,2.70
2023-04-12T07:42:40.748Z,2.70
2023-04-12T07:45:10.018Z,2.20
2023-04-12T07:47:38.565Z,2.20
2023-04-12T07:50:08.097Z,2.40
2023-04-12T07:52:36.603Z,1.80
2023-04-12T07:55:05.564Z,2.28
2023-04-12T07:57:35.653Z,2.60
2023-04-12T08:00:06.050Z,2.38
2023-04-12T08:02:34.585Z,2.10
2023-04-12T08:05:03.088Z,2.00
2023-04-12T08:07:31.630Z,2.08
2023-04-12T08:09:59.785Z,1.40
2023-04-12T08:12:27.991Z,2.08
2023-04-12T08:14:57.496Z,2.17
2023-04-12T08:17:28.798Z,1.83
2023-04-12T08:19:57.487Z,1.80
2023-04-12T08:22:26.046Z,1.83
2023-04-12T08:24:54.472Z,1.70
2023-04-12T08:27:23.443Z,1.70
2023-04-12T08:29:52.107Z,1.88
2023-04-12T08:34:50.084Z,2.10
2023-04-12T08:37:18.893Z,1.70
2023-04-12T08:39:47.075Z,2.22
2023-04-12T08:42:16.366Z,1.90
2023-04-12T08:44:45.761Z,1.45
2023-04-12T08:47:14.669Z,1.80
2023-04-12T08:49:45.417Z,1.55
2023-04-12T08:52:14.313Z,1.30
2023-04-12T08:54:42.881Z,1.15
2023-04-12T08:57:11.492Z,3.15
2023-04-12T08:59:43.538Z,2.00
2023-04-12T09:02:12.033Z,1.77
2023-04-12T09:04:50.482Z,1.83
2023-04-12T09:07:19.184Z,2.22
2023-04-12T09:09:48.615Z,1.85
2023-04-12T09:12:17.852Z,1.38
2023-04-12T09:14:46.156Z,1.52
2023-04-12T09:17:28.217Z,1.40
2023-04-12T09:19:58.136Z,1.20
2023-04-12T09:22:37.425Z,1.70
2023-04-12T09:25:06.543Z,1.33
2023-04-12T09:27:47.564Z,1.20
2023-04-12T09:30:18.295Z,1.50
2023-04-12T09:32:46.870Z,2.20
2023-04-12T09:35:17.518Z,2.38
2023-04-12T09:37:45.933Z,1.83
2023-04-12T09:40:14.568Z,2.05
2023-04-12T09:42:53.692Z,2.05
2023-04-12T09:45:24.485Z,1.42
2023-04-12T09:47:53.961Z,1.20
2023-04-12T09:50:24.684Z,1.77
2023-04-12T09:52:54.287Z,1.65
2023-04-12T09:55:24.346Z,1.60
2023-04-12T09:57:54.264Z,1.35
2023-04-12T10:00:26.939Z,1.40
2023-04-12T10:02:57.944Z,1.85
2023-04-12T10:05:28.453Z,2.63
2023-04-12T10:07:57.505Z,1.85
2023-04-12T10:10:26.619Z,2.42
2023-04-12T10:12:55.237Z,2.70
2023-04-12T10:15:23.675Z,2.85
2023-04-12T10:17:54.054Z,2.58
2023-04-12T10:20:28.232Z,2.58
2023-04-12T10:23:00.019Z,3.28
2023-04-12T10:25:31.169Z,3.78
2023-04-12T10:28:15.557Z,1.63
2023-04-12T10:30:44.102Z,1.98
2023-04-12T10:33:18.409Z,1.70
2023-04-12T10:35:58.261Z,1.42
2023-04-12T10:38:35.279Z,1.75
2023-04-12T10:41:14.932Z,1.77
2023-04-12T10:43:44.210Z,1.48
2023-04-12T10:46:50.520Z,1.83
2023-04-12T10:49:19.523Z,2.03
2023-04-12T10:52:18.523Z,1.70
2023-04-12T10:54:48.870Z,1.80
2023-04-12T10:57:49.847Z,1.50
2023-04-12T11:00:18.859Z,2.00
2023-04-12T11:03:07.631Z,1.90
2023-04-12T11:05:58.286Z,2.08
2023-04-12T11:08:27.916Z,1.98
2023-04-12T11:11:03.800Z,1.65
2023-04-12T11:13:37.373Z,1.35
2023-04-12T11:16:07.861Z,1.55
2023-04-12T11:18:36.847Z,1.83
2023-04-12T11:21:06.344Z,1.67
2023-04-12T11:23:36.418Z,2.30
2023-04-12T11:26:07.466Z,1.35
2023-04-12T11:28:36.066Z,2.25
2023-04-12T11:31:04.553Z,1.52
2023-04-12T11:33:34.435Z,1.63
2023-04-12T11:36:06.038Z,2.03
2023-04-12T11:38:35.875Z,2.00
2023-04-12T11:41:07.305Z,2.22
2023-04-12T11:43:36.191Z,1.75
2023-04-12T11:46:04.851Z,1.52
2023-04-12T11:48:34.108Z,1.77
2023-04-12T11:51:10.937Z,1.85
2023-04-12T11:53:40.216Z,1.40
2023-04-12T11:56:12.159Z,2.10
2023-04-12T11:58:40.811Z,1.35
2023-04-12T12:01:09.277Z,1.40
2023-04-12T12:03:38.252Z,1.35
2023-04-12T12:06:08.585Z,1.88
2023-04-12T12:08:39.695Z,1.83
2023-04-12T12:11:10.660Z,3.42
2023-04-12T12:13:50.037Z,2.33
2023-04-12T12:16:19.191Z,1.90
2023-04-12T12:18:52.377Z,2.40
2023-04-12T12:21:21.796Z,2.05
2023-04-12T12:23:51.129Z,1.83
2023-04-12T12:26:25.463Z,1.60
2023-04-12T12:28:55.092Z,1.65
2023-04-12T12:31:25.103Z,1.58
2023-04-12T12:34:00.151Z,1.73
2023-04-12T12:36:36.224Z,1.67
2023-04-12T12:39:10.694Z,2.45
2023-04-12T12:41:41.543Z,2.15
2023-04-12T12:44:11.363Z,2.95
2023-04-12T12:46:53.597Z,2.45
2023-04-12T12:49:25.638Z,2.80
2023-04-12T12:51:53.923Z,2.70
2023-04-12T12:54:39.284Z,2.50
2023-04-12T12:57:11.067Z,2.80
2023-04-12T12:59:40.250Z,2.60
2023-04-12T13:02:09.172Z,3.80
2023-04-12T13:04:37.957Z,2.90
2023-04-12T13:07:06.158Z,3.45
2023-04-12T13:09:34.654Z,3.17
2023-04-12T13:12:03.444Z,2.88
2023-04-12T13:14:33.088Z,2.17
2023-04-12T13:17:01.644Z,2.60
2023-04-12T13:19:30.238Z,2.88
2023-04-12T13:21:58.422Z,2.45
2023-04-12T13:24:26.880Z,2.20
2023-04-12T13:26:55.033Z,2.40
2023-04-12T13:29:23.651Z,2.28
2023-04-12T13:31:53.329Z,1.98
2023-04-12T13:34:22.231Z,2.08
2023-04-12T13:36:50.873Z,2.25
2023-04-12T13:39:19.138Z,1.88
2023-04-12T13:41:47.298Z,1.98
2023-04-12T13:44:15.773Z,2.35
2023-04-12T13:46:43.968Z,2.17
2023-04-12T13:49:14.030Z,1.92
2023-04-12T13:51:42.243Z,3.17
2023-04-12T13:54:10.658Z,1.92
2023-04-12T13:56:38.857Z,2.70
2023-04-12T13:59:07.563Z,2.17
2023-04-12T14:01:36.426Z,2.25
2023-04-12T14:04:05.395Z,2.20
2023-04-12T14:06:36.437Z,1.77
2023-04-12T14:09:05.815Z,1.70
2023-04-12T14:11:47.329Z,2.22
2023-04-12T14:14:16.957Z,2.40
2023-04-12T14:16:46.287Z,3.10
2023-04-12T14:19:14.763Z,2.38
2023-04-12T14:21:44.588Z,2.35
2023-04-12T14:24:12.922Z,2.35
2023-04-12T14:26:41.234Z,2.45
2023-04-12T14:29:09.739Z,1.90
2023-04-12T14:31:38.198Z,2.50
2023-04-12T14:34:08.937Z,2.53
2023-04-12T14:36:37.450Z,1.90
2023-04-12T14:39:10.443Z,1.50
2023-04-12T14:41:39.428Z,2.22
2023-04-12T14:44:07.737Z,1.58
2023-04-12T14:46:36.382Z,2.97
2023-04-12T14:49:04.668Z,3.30
2023-04-12T14:51:33.549Z,2.47
2023-04-12T14:54:02.118Z,2.17
2023-04-12T14:56:33.315Z,1.50
2023-04-12T14:59:04.462Z,1.83
2023-04-12T15:01:34.067Z,2.00
2023-04-12T15:04:04.123Z,1.63
2023-04-12T15:06:35.522Z,2.53
2023-04-12T15:09:06.463Z,2.85
2023-04-12T15:11:38.348Z,3.25
2023-04-12T15:14:07.849Z,2.65
2023-04-12T15:16:39.154Z,1.55
2023-04-12T15:19:17.555Z,1.65
2023-04-12T15:21:51.129Z,1.33
2023-04-12T15:24:20.095Z,1.70
2023-04-12T15:26:51.116Z,2.10
2023-04-12T15:29:20.290Z,1.90
2023-04-12T15:31:48.927Z,1.60
2023-04-12T15:34:18.143Z,1.42
2023-04-12T15:36:47.005Z,1.42
2023-04-12T15:39:16.352Z,1.50
2023-04-12T15:41:44.864Z,1.48
2023-04-12T15:44:14.557Z,2.00
2023-04-12T15:46:43.641Z,1.40
2023-04-12T15:49:12.973Z,2.00
2023-04-12T15:51:41.830Z,1.58
2023-04-12T15:54:10.365Z,1.20
2023-04-12T15:56:38.923Z,1.77
2023-04-12T15:59:07.915Z,2.20
2023-04-12T16:01:38.192Z,1.40
2023-04-12T16:04:07.241Z,1.88
2023-04-12T16:06:38.362Z,1.63
2023-04-12T16:09:07.701Z,1.35
2023-04-12T16:11:36.502Z,1.70
2023-04-12T16:14:06.234Z,1.58
2023-04-12T16:16:35.675Z,2.17
2023-04-12T16:19:06.426Z,2.80
2023-04-12T16:21:35.067Z,5.30
2023-04-12T16:24:05.278Z,5.07
2023-04-12T16:26:33.865Z,4.22
2023-04-12T16:29:03.838Z,3.38
2023-04-12T16:31:32.410Z,4.03
2023-04-12T16:34:01.264Z,3.13
2023-04-12T16:36:31.902Z,3.03
2023-04-12T16:39:02.030Z,2.80
2023-04-12T16:41:30.533Z,3.05
2023-04-12T16:44:03.503Z,3.05
2023-04-12T16:46:32.087Z,2.92
2023-04-12T16:49:03.859Z,3.03
2023-04-12T16:51:36.746Z,2.40
2023-04-12T16:54:06.325Z,2.55
2023-04-12T16:56:34.342Z,1.80
2023-04-12T16:59:05.368Z,2.67
2023-04-12T17:01:34.610Z,2.08
2023-04-12T17:04:03.800Z,2.50
2023-04-12T17:06:34.256Z,2.67
2023-04-12T17:09:02.345Z,1.45
2023-04-12T17:11:30.340Z,1.20
2023-04-12T17:13:58.983Z,0.80
2023-04-12T17:16:31.207Z,1.17
2023-04-12T17:18:59.865Z,0.80
2023-04-12T17:21:28.163Z,1.25
2023-04-12T17:23:58.363Z,1.13
2023-04-12T17:26:28.179Z,1.67
2023-04-12T17:28:59.992Z,1.30
2023-04-12T17:31:29.595Z,0.90
2023-04-12T17:33:58.990Z,0.77
2023-04-12T17:36:32.184Z,1.10
2023-04-12T17:39:04.861Z,0.68
2023-04-12T17:41:33.560Z,1.10
2023-04-12T17:44:02.659Z,0.85
2023-04-12T17:46:31.024Z,0.80
2023-04-12T17:49:00.236Z,0.88
2023-04-12T17:51:29.488Z,0.90
2023-04-12T17:54:00.709Z,0.90
2023-04-12T17:56:30.821Z,0.60
2023-04-12T17:59:02.458Z,0.70
2023-04-12T18:01:31.784Z,0.98
2023-04-12T18:04:02.953Z,0.70
2023-04-12T18:06:31.869Z,0.88
2023-04-12T18:09:00.831Z,1.00
2023-04-12T18:11:31.394Z,0.65
2023-04-12T18:14:00.458Z,0.73
2023-04-12T18:16:29.607Z,0.80
2023-04-12T18:18:58.684Z,0.70
2023-04-12T18:21:28.654Z,0.50
2023-04-12T18:23:57.200Z,0.52
2023-04-12T18:26:26.834Z,0.57
2023-04-12T18:28:56.535Z,0.70
2023-04-12T18:31:25.083Z,0.63
2023-04-12T18:33:53.652Z,0.80
2023-04-12T18:36:21.780Z,0.32
2023-04-12T18:38:50.409Z,0.70
2023-04-12T18:41:18.988Z,0.50
2023-04-12T18:43:47.388Z,0.50
2023-04-12T18:46:20.655Z,0.57
2023-04-12T18:48:52.265Z,0.50
2023-04-12T18:51:21.607Z,0.60
2023-04-12T18:53:50.708Z,0.80
2023-04-12T18:56:23.433Z,0.43
2023-04-12T18:58:55.632Z,0.70
2023-04-12T19:01:26.893Z,0.65
2023-04-12T19:03:55.304Z,0.68
2023-04-12T19:06:23.774Z,0.47
2023-04-12T19:08:52.371Z,1.05
2023-04-12T19:11:20.648Z,1.08
2023-04-12T19:13:49.574Z,1.00
2023-04-12T19:16:18.196Z,0.50
2023-04-12T19:18:48.470Z,0.70
2023-04-12T19:21:16.425Z,0.60
2023-04-12T19:23:44.675Z,0.60
2023-04-12T19:26:13.514Z,0.65
2023-04-12T19:28:43.586Z,0.63
2023-04-12T19:31:12.223Z,0.57
2023-04-12T19:33:41.734Z,0.80
2023-04-12T19:36:12.575Z,0.70
2023-04-12T19:38:41.552Z,0.80
2023-04-12T19:41:09.924Z,1.00
2023-04-12T19:43:38.362Z,0.70
2023-04-12T19:46:07.620Z,1.08
2023-04-12T19:48:36.098Z,0.70
2023-04-12T19:51:05.321Z,0.50
2023-04-12T19:53:35.585Z,0.45
2023-04-12T19:56:06.093Z,0.50
2023-04-12T19:58:34.868Z,0.40
2023-04-12T20:01:03.285Z,0.70
2023-04-12T20:03:32.516Z,1.00
2023-04-12T20:06:04.769Z,0.65
2023-04-12T20:08:36.089Z,0.80
2023-04-12T20:11:04.631Z,0.70
2023-04-12T20:13:34.281Z,0.70
2023-04-12T20:16:02.912Z,0.60
2023-04-12T20:18:31.436Z,0.85
2023-04-12T20:20:59.957Z,0.95
2023-04-12T20:23:28.313Z,0.50
2023-04-12T20:25:58.077Z,1.02
2023-04-12T20:28:26.774Z,0.90
2023-04-12T20:30:55.698Z,0.85
2023-04-12T20:33:24.566Z,0.95
2023-04-12T20:35:54.235Z,0.95
2023-04-12T20:38:22.832Z,1.10
2023-04-12T20:40:51.935Z,1.13
2023-04-12T20:43:21.859Z,1.00
2023-04-12T20:45:50.906Z,0.95
2023-04-12T20:48:20.025Z,0.90
2023-04-12T20:50:48.437Z,1.23
2023-04-12T20:53:17.831Z,0.98
2023-04-12T20:55:46.561Z,1.15
2023-04-12T20:58:16.521Z,1.85
2023-04-12T21:00:46.922Z,1.30
2023-04-12T21:03:15.726Z,1.40
2023-04-12T21:05:46.079Z,1.40
2023-04-12T21:08:14.427Z,1.10
2023-04-12T21:10:42.984Z,1.23
2023-04-12T21:13:11.970Z,1.20
2023-04-12T21:15:40.776Z,1.00
2023-04-12T21:18:10.486Z,0.90
2023-04-12T21:20:38.998Z,0.70
2023-04-12T21:23:07.604Z,0.90
2023-04-12T21:25:35.983Z,1.20
2023-04-12T21:28:04.639Z,1.10
2023-04-12T21:30:33.542Z,1.17
2023-04-12T21:33:02.470Z,1.15
2023-04-12T21:35:32.278Z,1.00
2023-04-12T21:38:00.963Z,0.90
2023-04-12T21:40:29.124Z,1.42
2023-04-12T21:42:57.732Z,1.08
2023-04-12T21:45:27.519Z,1.67
2023-04-12T21:47:55.980Z,1.40
2023-04-12T21:50:24.390Z,1.25
2023-04-12T21:52:56.637Z,0.82
2023-04-12T21:55:25.274Z,1.05
2023-04-12T21:57:53.740Z,0.70
2023-04-12T22:00:24.895Z,0.77
2023-04-12T22:02:52.998Z,1.00
2023-04-12T22:05:21.436Z,1.30
2023-04-12T22:07:50.482Z,0.77
2023-04-12T22:10:20.766Z,1.05
2023-04-12T22:12:50.503Z,0.52
2023-04-12T22:15:19.316Z,0.85
2023-04-12T22:17:48.517Z,0.80
2023-04-12T22:20:16.746Z,0.93
2023-04-12T22:22:45.290Z,0.90
2023-04-12T22:25:15.812Z,0.98
2023-04-12T22:27:46.563Z,0.88
2023-04-12T22:30:16.035Z,0.85
2023-04-12T22:32:44.703Z,0.90
2023-04-12T22:35:13.129Z,0.85
2023-04-12T22:37:43.160Z,1.20
2023-04-12T22:40:14.403Z,0.82
2023-04-12T22:42:46.717Z,0.80
2023-04-12T22:45:17.377Z,0.88
2023-04-12T22:47:46.664Z,1.10
2023-04-12T22:50:15.209Z,1.02
2023-04-12T22:52:43.623Z,1.02
2023-04-12T22:55:14.272Z,0.90
2023-04-12T22:57:42.368Z,0.77
2023-04-12T23:00:15.770Z,1.42
2023-04-12T23:02:47.910Z,0.88
2023-04-12T23:05:16.590Z,0.95
2023-04-12T23:07:44.769Z,1.10
2023-04-12T23:10:13.354Z,0.80
2023-04-12T23:12:41.835Z,0.75
2023-04-12T23:15:10.857Z,0.80
2023-04-12T23:17:38.936Z,0.75
2023-04-12T23:20:13.339Z,0.47
2023-04-12T23:22:57.477Z,0.70
2023-04-12T23:25:38.085Z,0.60
2023-04-12T23:28:07.757Z,0.40
2023-04-12T23:30:35.806Z,0.55
2023-04-12T23:33:04.263Z,0.70
2023-04-12T23:35:38.907Z,0.47
2023-04-12T23:38:07.454Z,0.52
2023-04-12T23:40:36.127Z,0.30
2023-04-12T23:43:04.274Z,0.60
2023-04-12T23:45:32.449Z,0.90
2023-04-12T23:48:00.860Z,1.30
2023-04-12T23:50:29.324Z,1.30
2023-04-12T23:52:58.729Z,1.55
2023-04-12T23:55:27.121Z,1.77
2023-04-12T23:57:55.180Z,2.53
